K81 weather

Miami County Airport
Paola, Kansas, United States

Public forecast

Using degrees Fahrenheit for public forecast. Weather courtesy of forecast.io.

METAR (pilot weather report)

Closest report is New Century Aircenter Airport, 17.5 nm (32.4 km) N. Retrieved 2019/08/25 02:53 UTC (53 minutes ago):

KIXD 250253Z 10006KT 10SM OVC029 21/16 A3004 RMK AO2 SLP165 T02060161 55000

TAF (pilot weather forecast)

Forecast is more than 12 hours old.

Closest forecast is New Century Aircenter Airport, 17.5 nm (32.4 km) N. Retrieved 2019/08/24 00:24 UTC (1 day ago):

TAF KIXD 242323Z 2500/2524 09011KT P6SM OVC025 FM250700 11010KT 5SM BR OVC015 FM251300 13008KT 5SM -DZ BR OVC007